sensor_id;sensor_type;location;lat;lon;timestamp;P1;durP1;ratioP1;P2;durP2;ratioP2
5416;SDS011;2731;50.754;12.990;2023-05-07T00:02:11;21.70;;;14.13;;
5416;SDS011;2731;50.754;12.990;2023-05-07T00:05:02;21.10;;;14.55;;
5416;SDS011;2731;50.754;12.990;2023-05-07T00:07:30;22.38;;;13.95;;
5416;SDS011;2731;50.754;12.990;2023-05-07T00:09:57;24.02;;;14.20;;
5416;SDS011;2731;50.754;12.990;2023-05-07T00:12:24;19.55;;;12.82;;
5416;SDS011;2731;50.754;12.990;2023-05-07T00:14:50;20.67;;;13.75;;
5416;SDS011;2731;50.754;12.990;2023-05-07T00:17:18;21.83;;;13.13;;
5416;SDS011;2731;50.754;12.990;2023-05-07T00:19:47;21.65;;;13.77;;
5416;SDS011;2731;50.754;12.990;2023-05-07T00:22:16;21.60;;;13.23;;
5416;SDS011;2731;50.754;12.990;2023-05-07T00:24:42;19.50;;;13.35;;
5416;SDS011;2731;50.754;12.990;2023-05-07T00:27:08;21.38;;;12.40;;
5416;SDS011;2731;50.754;12.990;2023-05-07T00:29:35;21.63;;;12.90;;
5416;SDS011;2731;50.754;12.990;2023-05-07T00:32:05;20.10;;;12.85;;
5416;SDS011;2731;50.754;12.990;2023-05-07T00:34:34;18.67;;;12.05;;
5416;SDS011;2731;50.754;12.990;2023-05-07T00:37:01;17.95;;;12.25;;
5416;SDS011;2731;50.754;12.990;2023-05-07T00:39:40;19.48;;;12.55;;
5416;SDS011;2731;50.754;12.990;2023-05-07T00:42:08;21.67;;;13.10;;
5416;SDS011;2731;50.754;12.990;2023-05-07T00:44:36;21.33;;;11.15;;
5416;SDS011;2731;50.754;12.990;2023-05-07T00:47:03;18.10;;;10.75;;
5416;SDS011;2731;50.754;12.990;2023-05-07T00:49:41;17.83;;;11.43;;
5416;SDS011;2731;50.754;12.990;2023-05-07T00:52:13;17.83;;;11.25;;
5416;SDS011;2731;50.754;12.990;2023-05-07T00:54:41;18.30;;;11.00;;
5416;SDS011;2731;50.754;12.990;2023-05-07T00:57:09;16.13;;;9.55;;
5416;SDS011;2731;50.754;12.990;2023-05-07T00:59:40;15.55;;;10.10;;
5416;SDS011;2731;50.754;12.990;2023-05-07T01:02:09;15.75;;;9.48;;
5416;SDS011;2731;50.754;12.990;2023-05-07T01:07:30;16.50;;;10.00;;
5416;SDS011;2731;50.754;12.990;2023-05-07T01:09:58;14.93;;;9.20;;
5416;SDS011;2731;50.754;12.990;2023-05-07T01:12:26;14.93;;;10.13;;
5416;SDS011;2731;50.754;12.990;2023-05-07T01:14:53;14.80;;;10.27;;
5416;SDS011;2731;50.754;12.990;2023-05-07T01:17:20;16.23;;;9.60;;
5416;SDS011;2731;50.754;12.990;2023-05-07T01:19:47;15.13;;;9.43;;
5416;SDS011;2731;50.754;12.990;2023-05-07T01:22:15;15.80;;;9.13;;
5416;SDS011;2731;50.754;12.990;2023-05-07T01:24:43;16.95;;;10.30;;
5416;SDS011;2731;50.754;12.990;2023-05-07T01:27:14;16.00;;;10.65;;
5416;SDS011;2731;50.754;12.990;2023-05-07T01:29:40;16.52;;;9.98;;
5416;SDS011;2731;50.754;12.990;2023-05-07T01:32:08;15.02;;;10.10;;
5416;SDS011;2731;50.754;12.990;2023-05-07T01:34:36;14.30;;;9.25;;
5416;SDS011;2731;50.754;12.990;2023-05-07T01:37:04;14.02;;;9.10;;
5416;SDS011;2731;50.754;12.990;2023-05-07T01:39:31;14.35;;;9.80;;
5416;SDS011;2731;50.754;12.990;2023-05-07T01:41:59;12.57;;;8.82;;
5416;SDS011;2731;50.754;12.990;2023-05-07T01:44:26;16.63;;;9.93;;
5416;SDS011;2731;50.754;12.990;2023-05-07T01:46:54;14.40;;;9.05;;
5416;SDS011;2731;50.754;12.990;2023-05-07T01:49:21;15.55;;;10.32;;
5416;SDS011;2731;50.754;12.990;2023-05-07T01:51:49;15.98;;;9.77;;
5416;SDS011;2731;50.754;12.990;2023-05-07T01:54:18;14.13;;;8.88;;
5416;SDS011;2731;50.754;12.990;2023-05-07T01:56:58;14.85;;;9.88;;
5416;SDS011;2731;50.754;12.990;2023-05-07T01:59:26;15.35;;;9.90;;
5416;SDS011;2731;50.754;12.990;2023-05-07T02:01:53;17.17;;;10.05;;
5416;SDS011;2731;50.754;12.990;2023-05-07T02:04:20;16.13;;;9.40;;
5416;SDS011;2731;50.754;12.990;2023-05-07T02:06:47;14.10;;;9.52;;
5416;SDS011;2731;50.754;12.990;2023-05-07T02:09:14;17.30;;;9.60;;
5416;SDS011;2731;50.754;12.990;2023-05-07T02:11:46;14.87;;;10.47;;
5416;SDS011;2731;50.754;12.990;2023-05-07T02:14:13;16.63;;;10.35;;
5416;SDS011;2731;50.754;12.990;2023-05-07T02:16:42;16.30;;;10.00;;
5416;SDS011;2731;50.754;12.990;2023-05-07T02:19:10;17.23;;;10.55;;
5416;SDS011;2731;50.754;12.990;2023-05-07T02:21:38;16.50;;;10.68;;
5416;SDS011;2731;50.754;12.990;2023-05-07T02:24:06;14.15;;;9.90;;
5416;SDS011;2731;50.754;12.990;2023-05-07T02:26:39;16.23;;;10.40;;
5416;SDS011;2731;50.754;12.990;2023-05-07T02:29:10;15.02;;;10.13;;
5416;SDS011;2731;50.754;12.990;2023-05-07T02:31:38;20.55;;;11.27;;
5416;SDS011;2731;50.754;12.990;2023-05-07T02:34:04;16.73;;;10.80;;
5416;SDS011;2731;50.754;12.990;2023-05-07T02:36:33;15.70;;;10.02;;
5416;SDS011;2731;50.754;12.990;2023-05-07T02:39:02;15.88;;;10.48;;
5416;SDS011;2731;50.754;12.990;2023-05-07T02:41:29;17.63;;;10.80;;
5416;SDS011;2731;50.754;12.990;2023-05-07T02:43:55;15.43;;;10.02;;
5416;SDS011;2731;50.754;12.990;2023-05-07T02:46:24;17.55;;;10.98;;
5416;SDS011;2731;50.754;12.990;2023-05-07T02:48:52;16.90;;;10.10;;
5416;SDS011;2731;50.754;12.990;2023-05-07T02:51:19;16.58;;;10.38;;
5416;SDS011;2731;50.754;12.990;2023-05-07T02:53:47;17.75;;;10.40;;
5416;SDS011;2731;50.754;12.990;2023-05-07T02:56:16;17.15;;;11.10;;
5416;SDS011;2731;50.754;12.990;2023-05-07T02:58:42;14.15;;;10.10;;
5416;SDS011;2731;50.754;12.990;2023-05-07T03:01:10;15.52;;;10.48;;
5416;SDS011;2731;50.754;12.990;2023-05-07T03:03:40;16.55;;;9.85;;
5416;SDS011;2731;50.754;12.990;2023-05-07T03:06:06;17.23;;;11.55;;
5416;SDS011;2731;50.754;12.990;2023-05-07T03:08:33;17.42;;;10.75;;
5416;SDS011;2731;50.754;12.990;2023-05-07T03:11:02;17.63;;;11.15;;
5416;SDS011;2731;50.754;12.990;2023-05-07T03:13:31;17.77;;;11.80;;
5416;SDS011;2731;50.754;12.990;2023-05-07T03:15:58;16.85;;;11.85;;
5416;SDS011;2731;50.754;12.990;2023-05-07T03:18:25;16.58;;;11.52;;
5416;SDS011;2731;50.754;12.990;2023-05-07T03:20:53;18.98;;;12.95;;
5416;SDS011;2731;50.754;12.990;2023-05-07T03:23:20;21.35;;;13.55;;
5416;SDS011;2731;50.754;12.990;2023-05-07T03:25:51;20.90;;;13.23;;
5416;SDS011;2731;50.754;12.990;2023-05-07T03:28:17;21.30;;;13.50;;
5416;SDS011;2731;50.754;12.990;2023-05-07T03:30:45;20.38;;;14.05;;
5416;SDS011;2731;50.754;12.990;2023-05-07T03:33:15;20.25;;;13.40;;
5416;SDS011;2731;50.754;12.990;2023-05-07T03:35:43;18.45;;;13.13;;
5416;SDS011;2731;50.754;12.990;2023-05-07T03:38:10;21.42;;;14.05;;
5416;SDS011;2731;50.754;12.990;2023-05-07T03:40:37;23.58;;;14.85;;
5416;SDS011;2731;50.754;12.990;2023-05-07T03:43:04;18.67;;;12.48;;
5416;SDS011;2731;50.754;12.990;2023-05-07T03:45:33;20.15;;;13.80;;
5416;SDS011;2731;50.754;12.990;2023-05-07T03:48:00;22.02;;;15.10;;
5416;SDS011;2731;50.754;12.990;2023-05-07T03:50:27;24.65;;;15.82;;
5416;SDS011;2731;50.754;12.990;2023-05-07T03:52:57;21.55;;;14.15;;
5416;SDS011;2731;50.754;12.990;2023-05-07T03:55:23;20.90;;;13.20;;
5416;SDS011;2731;50.754;12.990;2023-05-07T03:57:51;18.42;;;12.60;;
5416;SDS011;2731;50.754;12.990;2023-05-07T04:00:20;19.45;;;13.45;;
5416;SDS011;2731;50.754;12.990;2023-05-07T04:02:50;19.00;;;12.85;;
5416;SDS011;2731;50.754;12.990;2023-05-07T04:05:19;19.95;;;12.98;;
5416;SDS011;2731;50.754;12.990;2023-05-07T04:07:47;17.30;;;12.52;;
5416;SDS011;2731;50.754;12.990;2023-05-07T04:10:15;19.02;;;13.05;;
5416;SDS011;2731;50.754;12.990;2023-05-07T04:12:41;18.38;;;12.40;;
5416;SDS011;2731;50.754;12.990;2023-05-07T04:15:08;20.20;;;12.70;;
5416;SDS011;2731;50.754;12.990;2023-05-07T04:17:36;19.67;;;13.30;;
5416;SDS011;2731;50.754;12.990;2023-05-07T04:20:03;19.30;;;12.95;;
5416;SDS011;2731;50.754;12.990;2023-05-07T04:22:32;20.08;;;13.07;;
5416;SDS011;2731;50.754;12.990;2023-05-07T04:25:00;18.73;;;13.00;;
5416;SDS011;2731;50.754;12.990;2023-05-07T04:27:28;18.83;;;12.65;;
5416;SDS011;2731;50.754;12.990;2023-05-07T04:29:55;18.33;;;12.77;;
5416;SDS011;2731;50.754;12.990;2023-05-07T04:32:21;20.10;;;12.70;;
5416;SDS011;2731;50.754;12.990;2023-05-07T04:34:49;22.50;;;14.23;;
5416;SDS011;2731;50.754;12.990;2023-05-07T04:37:18;18.50;;;12.98;;
5416;SDS011;2731;50.754;12.990;2023-05-07T04:39:48;21.88;;;13.50;;
5416;SDS011;2731;50.754;12.990;2023-05-07T04:42:15;22.63;;;13.50;;
5416;SDS011;2731;50.754;12.990;2023-05-07T04:44:44;23.15;;;13.13;;
5416;SDS011;2731;50.754;12.990;2023-05-07T04:47:10;16.73;;;11.57;;
5416;SDS011;2731;50.754;12.990;2023-05-07T04:49:39;21.63;;;13.05;;
5416;SDS011;2731;50.754;12.990;2023-05-07T04:52:08;20.77;;;13.63;;
5416;SDS011;2731;50.754;12.990;2023-05-07T04:54:36;19.20;;;12.25;;
5416;SDS011;2731;50.754;12.990;2023-05-07T04:57:05;17.60;;;11.88;;
5416;SDS011;2731;50.754;12.990;2023-05-07T04:59:32;19.98;;;12.00;;
5416;SDS011;2731;50.754;12.990;2023-05-07T05:02:00;18.42;;;10.68;;
5416;SDS011;2731;50.754;12.990;2023-05-07T05:04:28;16.38;;;10.32;;
5416;SDS011;2731;50.754;12.990;2023-05-07T05:06:57;16.75;;;10.43;;
5416;SDS011;2731;50.754;12.990;2023-05-07T05:09:24;14.55;;;9.60;;
5416;SDS011;2731;50.754;12.990;2023-05-07T05:11:51;14.48;;;9.93;;
5416;SDS011;2731;50.754;12.990;2023-05-07T05:14:17;16.95;;;10.52;;
5416;SDS011;2731;50.754;12.990;2023-05-07T05:16:44;16.92;;;10.48;;
5416;SDS011;2731;50.754;12.990;2023-05-07T05:19:13;14.10;;;8.85;;
5416;SDS011;2731;50.754;12.990;2023-05-07T05:21:42;12.63;;;8.80;;
5416;SDS011;2731;50.754;12.990;2023-05-07T05:24:10;13.05;;;9.02;;
5416;SDS011;2731;50.754;12.990;2023-05-07T05:26:36;13.98;;;8.75;;
5416;SDS011;2731;50.754;12.990;2023-05-07T05:29:03;12.52;;;8.23;;
5416;SDS011;2731;50.754;12.990;2023-05-07T05:31:33;13.02;;;8.02;;
5416;SDS011;2731;50.754;12.990;2023-05-07T05:34:01;13.13;;;7.43;;
5416;SDS011;2731;50.754;12.990;2023-05-07T05:36:29;11.98;;;8.15;;
5416;SDS011;2731;50.754;12.990;2023-05-07T05:39:00;9.52;;;7.32;;
5416;SDS011;2731;50.754;12.990;2023-05-07T05:41:27;11.52;;;7.90;;
5416;SDS011;2731;50.754;12.990;2023-05-07T05:43:56;11.68;;;7.80;;
5416;SDS011;2731;50.754;12.990;2023-05-07T05:46:23;11.77;;;7.47;;
5416;SDS011;2731;50.754;12.990;2023-05-07T05:48:49;10.43;;;7.25;;
5416;SDS011;2731;50.754;12.990;2023-05-07T05:51:17;9.95;;;6.88;;
5416;SDS011;2731;50.754;12.990;2023-05-07T05:53:44;9.15;;;6.50;;
5416;SDS011;2731;50.754;12.990;2023-05-07T05:56:14;11.68;;;7.95;;
5416;SDS011;2731;50.754;12.990;2023-05-07T05:58:43;10.50;;;7.22;;
5416;SDS011;2731;50.754;12.990;2023-05-07T06:01:09;10.73;;;7.25;;
5416;SDS011;2731;50.754;12.990;2023-05-07T06:03:37;10.32;;;6.65;;
5416;SDS011;2731;50.754;12.990;2023-05-07T06:06:05;11.73;;;7.03;;
5416;SDS011;2731;50.754;12.990;2023-05-07T06:08:31;9.25;;;6.07;;
5416;SDS011;2731;50.754;12.990;2023-05-07T06:10:58;10.45;;;7.45;;
5416;SDS011;2731;50.754;12.990;2023-05-07T06:13:26;9.70;;;6.90;;
5416;SDS011;2731;50.754;12.990;2023-05-07T06:15:52;11.98;;;7.13;;
5416;SDS011;2731;50.754;12.990;2023-05-07T06:18:21;9.85;;;6.75;;
5416;SDS011;2731;50.754;12.990;2023-05-07T06:20:47;15.65;;;8.35;;
5416;SDS011;2731;50.754;12.990;2023-05-07T06:23:14;12.73;;;7.43;;
5416;SDS011;2731;50.754;12.990;2023-05-07T06:25:47;10.13;;;6.97;;
5416;SDS011;2731;50.754;12.990;2023-05-07T06:28:13;11.50;;;7.78;;
5416;SDS011;2731;50.754;12.990;2023-05-07T06:30:41;9.80;;;7.00;;
5416;SDS011;2731;50.754;12.990;2023-05-07T06:33:11;11.07;;;7.65;;
5416;SDS011;2731;50.754;12.990;2023-05-07T06:35:37;11.38;;;8.20;;
5416;SDS011;2731;50.754;12.990;2023-05-07T06:38:05;9.55;;;6.68;;
5416;SDS011;2731;50.754;12.990;2023-05-07T06:40:32;10.27;;;7.13;;
5416;SDS011;2731;50.754;12.990;2023-05-07T06:43:01;12.43;;;7.43;;
5416;SDS011;2731;50.754;12.990;2023-05-07T06:45:27;10.98;;;6.72;;
5416;SDS011;2731;50.754;12.990;2023-05-07T06:47:54;8.15;;;6.07;;
5416;SDS011;2731;50.754;12.990;2023-05-07T06:50:20;9.60;;;6.93;;
5416;SDS011;2731;50.754;12.990;2023-05-07T06:52:46;11.57;;;7.40;;
5416;SDS011;2731;50.754;12.990;2023-05-07T06:55:14;11.73;;;8.02;;
5416;SDS011;2731;50.754;12.990;2023-05-07T06:57:43;12.15;;;7.18;;
5416;SDS011;2731;50.754;12.990;2023-05-07T07:00:11;11.48;;;7.00;;
5416;SDS011;2731;50.754;12.990;2023-05-07T07:02:40;9.80;;;6.65;;
5416;SDS011;2731;50.754;12.990;2023-05-07T07:05:08;12.43;;;8.07;;
5416;SDS011;2731;50.754;12.990;2023-05-07T07:07:36;12.48;;;7.57;;
5416;SDS011;2731;50.754;12.990;2023-05-07T07:10:02;9.95;;;6.95;;
5416;SDS011;2731;50.754;12.990;2023-05-07T07:12:29;10.27;;;6.85;;
5416;SDS011;2731;50.754;12.990;2023-05-07T07:14:57;9.65;;;6.53;;
5416;SDS011;2731;50.754;12.990;2023-05-07T07:17:27;11.13;;;7.60;;
5416;SDS011;2731;50.754;12.990;2023-05-07T07:19:55;13.68;;;8.23;;
5416;SDS011;2731;50.754;12.990;2023-05-07T07:22:21;11.43;;;7.78;;
5416;SDS011;2731;50.754;12.990;2023-05-07T07:24:47;12.57;;;7.55;;
5416;SDS011;2731;50.754;12.990;2023-05-07T07:27:13;12.23;;;7.85;;
5416;SDS011;2731;50.754;12.990;2023-05-07T07:29:41;12.52;;;8.80;;
5416;SDS011;2731;50.754;12.990;2023-05-07T07:32:10;11.93;;;8.63;;
5416;SDS011;2731;50.754;12.990;2023-05-07T07:34:36;13.00;;;9.13;;
5416;SDS011;2731;50.754;12.990;2023-05-07T07:37:03;11.73;;;7.75;;
5416;SDS011;2731;50.754;12.990;2023-05-07T07:39:35;9.95;;;7.55;;
5416;SDS011;2731;50.754;12.990;2023-05-07T07:42:04;10.40;;;7.32;;
5416;SDS011;2731;50.754;12.990;2023-05-07T07:44:32;9.95;;;7.03;;
5416;SDS011;2731;50.754;12.990;2023-05-07T07:47:01;11.32;;;7.15;;
5416;SDS011;2731;50.754;12.990;2023-05-07T07:49:28;11.07;;;7.47;;
5416;SDS011;2731;50.754;12.990;2023-05-07T07:51:56;8.48;;;6.57;;
5416;SDS011;2731;50.754;12.990;2023-05-07T07:54:25;8.90;;;6.28;;
5416;SDS011;2731;50.754;12.990;2023-05-07T07:56:53;10.13;;;7.10;;
5416;SDS011;2731;50.754;12.990;2023-05-07T07:59:22;8.52;;;5.90;;
5416;SDS011;2731;50.754;12.990;2023-05-07T08:01:54;8.82;;;6.13;;
5416;SDS011;2731;50.754;12.990;2023-05-07T08:04:22;7.50;;;5.28;;
5416;SDS011;2731;50.754;12.990;2023-05-07T08:06:50;7.82;;;5.93;;
5416;SDS011;2731;50.754;12.990;2023-05-07T08:09:16;10.00;;;6.88;;
5416;SDS011;2731;50.754;12.990;2023-05-07T08:11:44;9.88;;;7.03;;
5416;SDS011;2731;50.754;12.990;2023-05-07T08:14:12;9.75;;;6.38;;
5416;SDS011;2731;50.754;12.990;2023-05-07T08:16:49;11.18;;;7.03;;
5416;SDS011;2731;50.754;12.990;2023-05-07T08:19:18;8.05;;;5.85;;
5416;SDS011;2731;50.754;12.990;2023-05-07T08:21:47;8.32;;;5.93;;
5416;SDS011;2731;50.754;12.990;2023-05-07T08:24:13;9.02;;;6.70;;
5416;SDS011;2731;50.754;12.990;2023-05-07T08:26:41;10.05;;;6.95;;
5416;SDS011;2731;50.754;12.990;2023-05-07T08:29:09;9.52;;;6.20;;
5416;SDS011;2731;50.754;12.990;2023-05-07T08:31:36;9.75;;;6.13;;
5416;SDS011;2731;50.754;12.990;2023-05-07T08:34:05;10.20;;;7.18;;
5416;SDS011;2731;50.754;12.990;2023-05-07T08:36:32;9.30;;;6.88;;
5416;SDS011;2731;50.754;12.990;2023-05-07T08:39:00;8.38;;;5.80;;
5416;SDS011;2731;50.754;12.990;2023-05-07T08:41:26;9.50;;;6.80;;
5416;SDS011;2731;50.754;12.990;2023-05-07T08:43:54;7.13;;;5.28;;
5416;SDS011;2731;50.754;12.990;2023-05-07T08:46:25;7.23;;;5.10;;
5416;SDS011;2731;50.754;12.990;2023-05-07T08:48:51;8.82;;;5.55;;
5416;SDS011;2731;50.754;12.990;2023-05-07T08:51:20;7.63;;;5.03;;
5416;SDS011;2731;50.754;12.990;2023-05-07T08:53:48;7.53;;;4.88;;
5416;SDS011;2731;50.754;12.990;2023-05-07T08:56:16;6.53;;;5.13;;
5416;SDS011;2731;50.754;12.990;2023-05-07T08:58:43;6.13;;;4.85;;
5416;SDS011;2731;50.754;12.990;2023-05-07T09:01:14;6.75;;;4.80;;
5416;SDS011;2731;50.754;12.990;2023-05-07T09:03:44;7.05;;;5.28;;
5416;SDS011;2731;50.754;12.990;2023-05-07T09:06:12;6.40;;;4.65;;
5416;SDS011;2731;50.754;12.990;2023-05-07T09:08:39;6.65;;;4.78;;
5416;SDS011;2731;50.754;12.990;2023-05-07T09:11:08;6.93;;;5.10;;
5416;SDS011;2731;50.754;12.990;2023-05-07T09:13:37;7.00;;;4.65;;
5416;SDS011;2731;50.754;12.990;2023-05-07T09:16:13;7.45;;;4.97;;
5416;SDS011;2731;50.754;12.990;2023-05-07T09:18:43;6.53;;;4.30;;
5416;SDS011;2731;50.754;12.990;2023-05-07T09:21:11;5.97;;;4.25;;
5416;SDS011;2731;50.754;12.990;2023-05-07T09:23:38;7.05;;;5.45;;
5416;SDS011;2731;50.754;12.990;2023-05-07T09:26:06;5.43;;;4.57;;
5416;SDS011;2731;50.754;12.990;2023-05-07T09:28:39;5.00;;;3.92;;
5416;SDS011;2731;50.754;12.990;2023-05-07T09:31:11;5.57;;;4.35;;
5416;SDS011;2731;50.754;12.990;2023-05-07T09:33:38;6.25;;;4.43;;
5416;SDS011;2731;50.754;12.990;2023-05-07T09:36:07;6.10;;;5.07;;
5416;SDS011;2731;50.754;12.990;2023-05-07T09:38:35;7.93;;;5.38;;
5416;SDS011;2731;50.754;12.990;2023-05-07T09:43:34;6.63;;;5.00;;
5416;SDS011;2731;50.754;12.990;2023-05-07T09:46:12;7.22;;;5.63;;
5416;SDS011;2731;50.754;12.990;2023-05-07T09:48:40;6.90;;;5.40;;
5416;SDS011;2731;50.754;12.990;2023-05-07T09:51:20;6.05;;;4.70;;
5416;SDS011;2731;50.754;12.990;2023-05-07T09:53:49;5.97;;;5.00;;
5416;SDS011;2731;50.754;12.990;2023-05-07T09:56:18;6.18;;;4.90;;
5416;SDS011;2731;50.754;12.990;2023-05-07T09:58:46;7.13;;;5.32;;
5416;SDS011;2731;50.754;12.990;2023-05-07T10:01:18;7.25;;;5.20;;
5416;SDS011;2731;50.754;12.990;2023-05-07T10:03:47;6.45;;;5.07;;
5416;SDS011;2731;50.754;12.990;2023-05-07T10:06:19;6.55;;;4.57;;
5416;SDS011;2731;50.754;12.990;2023-05-07T10:08:48;4.40;;;3.47;;
5416;SDS011;2731;50.754;12.990;2023-05-07T10:11:16;5.03;;;4.28;;
5416;SDS011;2731;50.754;12.990;2023-05-07T10:13:43;5.72;;;4.15;;
5416;SDS011;2731;50.754;12.990;2023-05-07T10:16:11;7.85;;;4.90;;
5416;SDS011;2731;50.754;12.990;2023-05-07T10:18:38;4.68;;;4.18;;
5416;SDS011;2731;50.754;12.990;2023-05-07T10:21:22;6.53;;;4.60;;
5416;SDS011;2731;50.754;12.990;2023-05-07T10:23:51;4.20;;;3.40;;
5416;SDS011;2731;50.754;12.990;2023-05-07T10:26:21;8.00;;;4.35;;
5416;SDS011;2731;50.754;12.990;2023-05-07T10:28:53;5.65;;;4.40;;
5416;SDS011;2731;50.754;12.990;2023-05-07T10:33:50;5.28;;;3.90;;
5416;SDS011;2731;50.754;12.990;2023-05-07T10:36:17;4.63;;;3.70;;
5416;SDS011;2731;50.754;12.990;2023-05-07T10:38:45;4.28;;;3.33;;
5416;SDS011;2731;50.754;12.990;2023-05-07T10:41:14;3.72;;;3.30;;
5416;SDS011;2731;50.754;12.990;2023-05-07T10:43:43;3.92;;;3.33;;
5416;SDS011;2731;50.754;12.990;2023-05-07T10:46:19;3.60;;;3.10;;
5416;SDS011;2731;50.754;12.990;2023-05-07T10:51:35;3.88;;;3.30;;
5416;SDS011;2731;50.754;12.990;2023-05-07T10:56:43;4.38;;;3.58;;
5416;SDS011;2731;50.754;12.990;2023-05-07T11:01:53;3.80;;;2.70;;
5416;SDS011;2731;50.754;12.990;2023-05-07T11:04:20;3.30;;;2.80;;
5416;SDS011;2731;50.754;12.990;2023-05-07T11:07:15;4.32;;;2.63;;
5416;SDS011;2731;50.754;12.990;2023-05-07T11:15:07;3.75;;;3.03;;
5416;SDS011;2731;50.754;12.990;2023-05-07T11:17:58;4.07;;;3.17;;
5416;SDS011;2731;50.754;12.990;2023-05-07T11:26:13;4.32;;;3.40;;
5416;SDS011;2731;50.754;12.990;2023-05-07T11:28:42;3.47;;;3.00;;
5416;SDS011;2731;50.754;12.990;2023-05-07T11:31:10;4.40;;;3.38;;
5416;SDS011;2731;50.754;12.990;2023-05-07T11:33:39;4.30;;;3.65;;
5416;SDS011;2731;50.754;12.990;2023-05-07T11:36:11;7.28;;;3.15;;
5416;SDS011;2731;50.754;12.990;2023-05-07T11:38:39;3.75;;;3.28;;
5416;SDS011;2731;50.754;12.990;2023-05-07T11:41:06;4.63;;;3.72;;
5416;SDS011;2731;50.754;12.990;2023-05-07T11:43:33;3.85;;;3.35;;
5416;SDS011;2731;50.754;12.990;2023-05-07T11:46:08;3.45;;;3.13;;
5416;SDS011;2731;50.754;12.990;2023-05-07T11:48:40;4.43;;;4.00;;
5416;SDS011;2731;50.754;12.990;2023-05-07T11:51:09;5.28;;;4.35;;
5416;SDS011;2731;50.754;12.990;2023-05-07T11:53:39;4.30;;;3.47;;
5416;SDS011;2731;50.754;12.990;2023-05-07T11:56:10;4.22;;;3.60;;
5416;SDS011;2731;50.754;12.990;2023-05-07T11:58:40;4.83;;;4.17;;
5416;SDS011;2731;50.754;12.990;2023-05-07T12:01:07;3.95;;;3.28;;
5416;SDS011;2731;50.754;12.990;2023-05-07T12:03:35;5.10;;;3.60;;
5416;SDS011;2731;50.754;12.990;2023-05-07T12:06:12;4.90;;;4.40;;
5416;SDS011;2731;50.754;12.990;2023-05-07T12:08:49;5.22;;;4.30;;
5416;SDS011;2731;50.754;12.990;2023-05-07T12:11:21;4.30;;;3.47;;
5416;SDS011;2731;50.754;12.990;2023-05-07T12:13:48;5.60;;;3.88;;
5416;SDS011;2731;50.754;12.990;2023-05-07T12:16:15;4.53;;;3.55;;
5416;SDS011;2731;50.754;12.990;2023-05-07T12:18:44;4.05;;;3.58;;
5416;SDS011;2731;50.754;12.990;2023-05-07T12:21:11;3.85;;;3.38;;
5416;SDS011;2731;50.754;12.990;2023-05-07T12:23:39;3.88;;;3.47;;
5416;SDS011;2731;50.754;12.990;2023-05-07T12:26:06;3.42;;;3.13;;
5416;SDS011;2731;50.754;12.990;2023-05-07T12:28:36;3.22;;;2.92;;
5416;SDS011;2731;50.754;12.990;2023-05-07T12:31:04;4.65;;;3.30;;
5416;SDS011;2731;50.754;12.990;2023-05-07T12:33:31;4.43;;;3.50;;
5416;SDS011;2731;50.754;12.990;2023-05-07T12:36:02;6.13;;;3.85;;
5416;SDS011;2731;50.754;12.990;2023-05-07T12:38:32;3.55;;;3.00;;
5416;SDS011;2731;50.754;12.990;2023-05-07T12:41:02;4.80;;;3.92;;
5416;SDS011;2731;50.754;12.990;2023-05-07T12:43:31;3.28;;;2.97;;
5416;SDS011;2731;50.754;12.990;2023-05-07T12:45:58;4.97;;;3.40;;
5416;SDS011;2731;50.754;12.990;2023-05-07T12:48:26;3.70;;;3.40;;
5416;SDS011;2731;50.754;12.990;2023-05-07T12:50:55;4.00;;;3.50;;
5416;SDS011;2731;50.754;12.990;2023-05-07T12:53:24;4.30;;;3.65;;
5416;SDS011;2731;50.754;12.990;2023-05-07T12:55:52;3.85;;;3.10;;
5416;SDS011;2731;50.754;12.990;2023-05-07T12:58:21;3.50;;;2.97;;
5416;SDS011;2731;50.754;12.990;2023-05-07T13:00:49;4.32;;;3.17;;
5416;SDS011;2731;50.754;12.990;2023-05-07T13:03:28;3.33;;;3.03;;
5416;SDS011;2731;50.754;12.990;2023-05-07T13:05:59;3.67;;;3.25;;
5416;SDS011;2731;50.754;12.990;2023-05-07T13:09:02;3.90;;;3.25;;
5416;SDS011;2731;50.754;12.990;2023-05-07T13:11:21;3.65;;;3.30;;
5416;SDS011;2731;50.754;12.990;2023-05-07T13:13:49;3.97;;;3.03;;
5416;SDS011;2731;50.754;12.990;2023-05-07T13:16:16;4.85;;;3.30;;
5416;SDS011;2731;50.754;12.990;2023-05-07T13:18:45;3.78;;;3.40;;
5416;SDS011;2731;50.754;12.990;2023-05-07T13:21:13;3.20;;;2.90;;
5416;SDS011;2731;50.754;12.990;2023-05-07T13:23:42;3.45;;;3.10;;
5416;SDS011;2731;50.754;12.990;2023-05-07T13:26:18;4.22;;;3.13;;
5416;SDS011;2731;50.754;12.990;2023-05-07T13:28:46;3.22;;;2.92;;
5416;SDS011;2731;50.754;12.990;2023-05-07T13:31:13;4.00;;;3.60;;
5416;SDS011;2731;50.754;12.990;2023-05-07T13:33:41;4.97;;;3.10;;
5416;SDS011;2731;50.754;12.990;2023-05-07T13:36:08;3.55;;;3.25;;
5416;SDS011;2731;50.754;12.990;2023-05-07T13:38:35;3.45;;;3.15;;
5416;SDS011;2731;50.754;12.990;2023-05-07T13:41:01;3.15;;;2.85;;
5416;SDS011;2731;50.754;12.990;2023-05-07T13:43:28;3.65;;;2.92;;
5416;SDS011;2731;50.754;12.990;2023-05-07T13:45:54;3.90;;;3.50;;
5416;SDS011;2731;50.754;12.990;2023-05-07T13:48:21;4.40;;;3.60;;
5416;SDS011;2731;50.754;12.990;2023-05-07T13:50:48;4.05;;;3.20;;
5416;SDS011;2731;50.754;12.990;2023-05-07T13:53:16;3.50;;;3.20;;
5416;SDS011;2731;50.754;12.990;2023-05-07T13:55:44;3.83;;;3.42;;
5416;SDS011;2731;50.754;12.990;2023-05-07T13:58:12;3.63;;;3.15;;
5416;SDS011;2731;50.754;12.990;2023-05-07T14:00:42;3.33;;;3.03;;
5416;SDS011;2731;50.754;12.990;2023-05-07T14:03:08;7.97;;;4.05;;
5416;SDS011;2731;50.754;12.990;2023-05-07T14:05:36;3.88;;;3.30;;
5416;SDS011;2731;50.754;12.990;2023-05-07T14:08:05;3.50;;;3.20;;
5416;SDS011;2731;50.754;12.990;2023-05-07T14:10:34;3.40;;;3.10;;
5416;SDS011;2731;50.754;12.990;2023-05-07T14:13:01;3.75;;;3.28;;
5416;SDS011;2731;50.754;12.990;2023-05-07T14:15:27;3.60;;;3.15;;
5416;SDS011;2731;50.754;12.990;2023-05-07T14:17:55;3.30;;;3.00;;
5416;SDS011;2731;50.754;12.990;2023-05-07T14:20:24;5.55;;;3.40;;
5416;SDS011;2731;50.754;12.990;2023-05-07T14:23:14;4.57;;;3.63;;
5416;SDS011;2731;50.754;12.990;2023-05-07T14:25:45;4.97;;;4.03;;
5416;SDS011;2731;50.754;12.990;2023-05-07T14:28:13;4.25;;;3.63;;
5416;SDS011;2731;50.754;12.990;2023-05-07T14:30:41;4.95;;;4.03;;
5416;SDS011;2731;50.754;12.990;2023-05-07T14:33:10;4.38;;;3.95;;
5416;SDS011;2731;50.754;12.990;2023-05-07T14:35:36;4.05;;;3.45;;
5416;SDS011;2731;50.754;12.990;2023-05-07T14:38:02;3.90;;;3.50;;
5416;SDS011;2731;50.754;12.990;2023-05-07T14:40:29;5.20;;;3.47;;
5416;SDS011;2731;50.754;12.990;2023-05-07T14:42:55;3.33;;;3.03;;
5416;SDS011;2731;50.754;12.990;2023-05-07T14:45:23;4.13;;;3.45;;
5416;SDS011;2731;50.754;12.990;2023-05-07T14:47:50;4.50;;;4.10;;
5416;SDS011;2731;50.754;12.990;2023-05-07T14:50:18;3.50;;;3.20;;
5416;SDS011;2731;50.754;12.990;2023-05-07T14:52:47;4.50;;;3.60;;
5416;SDS011;2731;50.754;12.990;2023-05-07T14:55:14;4.22;;;3.58;;
5416;SDS011;2731;50.754;12.990;2023-05-07T14:57:42;4.07;;;3.67;;
5416;SDS011;2731;50.754;12.990;2023-05-07T15:00:11;4.38;;;3.92;;
5416;SDS011;2731;50.754;12.990;2023-05-07T15:02:41;4.05;;;3.50;;
5416;SDS011;2731;50.754;12.990;2023-05-07T15:05:08;4.07;;;3.67;;
5416;SDS011;2731;50.754;12.990;2023-05-07T15:07:35;5.88;;;3.97;;
5416;SDS011;2731;50.754;12.990;2023-05-07T15:10:02;4.32;;;3.78;;
5416;SDS011;2731;50.754;12.990;2023-05-07T15:12:31;6.40;;;4.43;;
5416;SDS011;2731;50.754;12.990;2023-05-07T15:14:58;5.60;;;4.85;;
5416;SDS011;2731;50.754;12.990;2023-05-07T15:17:25;4.22;;;3.83;;
5416;SDS011;2731;50.754;12.990;2023-05-07T15:19:51;5.53;;;4.25;;
5416;SDS011;2731;50.754;12.990;2023-05-07T15:22:18;4.75;;;4.05;;
5416;SDS011;2731;50.754;12.990;2023-05-07T15:24:48;5.07;;;3.92;;
5416;SDS011;2731;50.754;12.990;2023-05-07T15:27:16;4.75;;;4.00;;